sensor_id;sensor_type;location;lat;lon;timestamp;temperature;humidity
13589;DHT22;6865;52.552;13.434;2022-10-19T00:01:14;11.70;99.90
13589;DHT22;6865;52.552;13.434;2022-10-19T00:03:42;11.70;99.90
13589;DHT22;6865;52.552;13.434;2022-10-19T00:08:56;11.70;99.90
13589;DHT22;6865;52.552;13.434;2022-10-19T00:11:23;11.80;99.90
13589;DHT22;6865;52.552;13.434;2022-10-19T00:13:51;11.90;99.90
13589;DHT22;6865;52.552;13.434;2022-10-19T00:16:19;11.90;99.90
13589;DHT22;6865;52.552;13.434;2022-10-19T00:18:45;11.80;99.90
13589;DHT22;6865;52.552;13.434;2022-10-19T00:21:14;11.70;99.90
13589;DHT22;6865;52.552;13.434;2022-10-19T00:23:42;11.70;99.90
13589;DHT22;6865;52.552;13.434;2022-10-19T00:26:08;11.70;99.90
13589;DHT22;6865;52.552;13.434;2022-10-19T00:28:35;11.70;99.90
13589;DHT22;6865;52.552;13.434;2022-10-19T00:31:14;11.70;99.90
13589;DHT22;6865;52.552;13.434;2022-10-19T00:33:41;11.70;99.90
13589;DHT22;6865;52.552;13.434;2022-10-19T00:36:24;11.70;99.90
13589;DHT22;6865;52.552;13.434;2022-10-19T00:38:52;11.80;99.90
13589;DHT22;6865;52.552;13.434;2022-10-19T00:41:20;11.70;99.90
13589;DHT22;6865;52.552;13.434;2022-10-19T00:46:38;11.70;99.90
13589;DHT22;6865;52.552;13.434;2022-10-19T00:49:14;11.70;99.90
13589;DHT22;6865;52.552;13.434;2022-10-19T00:51:45;11.70;99.90
13589;DHT22;6865;52.552;13.434;2022-10-19T00:54:13;11.70;99.90
13589;DHT22;6865;52.552;13.434;2022-10-19T00:56:43;11.70;99.90
13589;DHT22;6865;52.552;13.434;2022-10-19T00:59:12;11.70;99.90
13589;DHT22;6865;52.552;13.434;2022-10-19T01:01:42;11.60;99.90
13589;DHT22;6865;52.552;13.434;2022-10-19T01:04:12;11.70;99.90
13589;DHT22;6865;52.552;13.434;2022-10-19T01:06:40;11.50;99.90
13589;DHT22;6865;52.552;13.434;2022-10-19T01:09:07;11.70;99.90
13589;DHT22;6865;52.552;13.434;2022-10-19T01:12:02;11.70;99.90
13589;DHT22;6865;52.552;13.434;2022-10-19T01:14:46;11.70;99.90
13589;DHT22;6865;52.552;13.434;2022-10-19T01:17:31;11.70;99.90
13589;DHT22;6865;52.552;13.434;2022-10-19T01:29:09;11.90;99.90
13589;DHT22;6865;52.552;13.434;2022-10-19T01:31:51;11.90;99.90
13589;DHT22;6865;52.552;13.434;2022-10-19T01:34:26;11.90;99.90
13589;DHT22;6865;52.552;13.434;2022-10-19T01:37:04;11.90;99.90
13589;DHT22;6865;52.552;13.434;2022-10-19T01:39:54;11.90;99.90
13589;DHT22;6865;52.552;13.434;2022-10-19T01:45:53;12.00;99.90
13589;DHT22;6865;52.552;13.434;2022-10-19T01:48:34;12.00;99.90
13589;DHT22;6865;52.552;13.434;2022-10-19T01:51:11;12.00;99.90
13589;DHT22;6865;52.552;13.434;2022-10-19T01:53:42;12.10;99.90
13589;DHT22;6865;52.552;13.434;2022-10-19T01:56:10;12.00;99.90
13589;DHT22;6865;52.552;13.434;2022-10-19T01:58:40;12.00;99.90
13589;DHT22;6865;52.552;13.434;2022-10-19T02:01:10;12.10;99.90
13589;DHT22;6865;52.552;13.434;2022-10-19T02:03:39;12.70;99.90
13589;DHT22;6865;52.552;13.434;2022-10-19T02:06:08;12.20;99.90
13589;DHT22;6865;52.552;13.434;2022-10-19T02:08:47;12.10;99.90
13589;DHT22;6865;52.552;13.434;2022-10-19T02:11:16;12.10;99.90
13589;DHT22;6865;52.552;13.434;2022-10-19T02:13:44;12.10;99.90
13589;DHT22;6865;52.552;13.434;2022-10-19T02:16:15;11.90;99.90
13589;DHT22;6865;52.552;13.434;2022-10-19T02:18:47;11.90;99.90
13589;DHT22;6865;52.552;13.434;2022-10-19T02:21:14;12.90;99.90
13589;DHT22;6865;52.552;13.434;2022-10-19T02:23:41;11.80;99.90
13589;DHT22;6865;52.552;13.434;2022-10-19T02:26:08;11.80;99.90
13589;DHT22;6865;52.552;13.434;2022-10-19T02:28:35;11.80;99.90
13589;DHT22;6865;52.552;13.434;2022-10-19T02:31:02;11.70;99.90
13589;DHT22;6865;52.552;13.434;2022-10-19T02:33:29;11.70;99.90
13589;DHT22;6865;52.552;13.434;2022-10-19T02:35:56;11.70;99.90
13589;DHT22;6865;52.552;13.434;2022-10-19T02:38:24;11.70;99.90
13589;DHT22;6865;52.552;13.434;2022-10-19T02:41:03;11.30;99.90
13589;DHT22;6865;52.552;13.434;2022-10-19T02:43:35;11.80;99.90
13589;DHT22;6865;52.552;13.434;2022-10-19T02:46:14;11.90;99.90
13589;DHT22;6865;52.552;13.434;2022-10-19T02:48:44;11.90;99.90
13589;DHT22;6865;52.552;13.434;2022-10-19T02:51:35;11.90;99.90
13589;DHT22;6865;52.552;13.434;2022-10-19T02:54:03;11.90;99.90
13589;DHT22;6865;52.552;13.434;2022-10-19T02:56:31;11.90;99.90
13589;DHT22;6865;52.552;13.434;2022-10-19T02:58:58;11.80;99.90
13589;DHT22;6865;52.552;13.434;2022-10-19T03:01:25;11.80;99.90
13589;DHT22;6865;52.552;13.434;2022-10-19T03:03:52;11.70;99.90
13589;DHT22;6865;52.552;13.434;2022-10-19T03:06:18;11.70;99.90
13589;DHT22;6865;52.552;13.434;2022-10-19T03:08:45;11.70;99.90
13589;DHT22;6865;52.552;13.434;2022-10-19T03:11:12;11.80;99.90
13589;DHT22;6865;52.552;13.434;2022-10-19T03:13:40;11.70;99.90
13589;DHT22;6865;52.552;13.434;2022-10-19T03:16:08;11.70;99.90
13589;DHT22;6865;52.552;13.434;2022-10-19T03:18:35;11.70;99.90
13589;DHT22;6865;52.552;13.434;2022-10-19T03:21:07;11.70;99.90
13589;DHT22;6865;52.552;13.434;2022-10-19T03:23:34;11.70;99.90
13589;DHT22;6865;52.552;13.434;2022-10-19T03:26:01;11.70;99.90
13589;DHT22;6865;52.552;13.434;2022-10-19T03:28:28;11.80;99.90
13589;DHT22;6865;52.552;13.434;2022-10-19T03:30:55;11.80;99.90
13589;DHT22;6865;52.552;13.434;2022-10-19T03:33:22;11.90;99.90
13589;DHT22;6865;52.552;13.434;2022-10-19T03:36:20;11.80;99.90
13589;DHT22;6865;52.552;13.434;2022-10-19T03:38:56;11.90;99.90
13589;DHT22;6865;52.552;13.434;2022-10-19T03:41:24;11.80;99.90
13589;DHT22;6865;52.552;13.434;2022-10-19T03:43:51;11.80;99.90
13589;DHT22;6865;52.552;13.434;2022-10-19T03:46:18;11.80;99.90
13589;DHT22;6865;52.552;13.434;2022-10-19T03:48:46;11.80;99.90
13589;DHT22;6865;52.552;13.434;2022-10-19T03:51:19;11.90;99.90
13589;DHT22;6865;52.552;13.434;2022-10-19T03:53:47;11.80;99.90
13589;DHT22;6865;52.552;13.434;2022-10-19T03:56:18;11.90;99.90
13589;DHT22;6865;52.552;13.434;2022-10-19T03:58:46;11.80;99.90
13589;DHT22;6865;52.552;13.434;2022-10-19T04:01:19;11.80;99.90
13589;DHT22;6865;52.552;13.434;2022-10-19T04:04:00;11.90;99.90
13589;DHT22;6865;52.552;13.434;2022-10-19T04:06:30;11.80;99.90
13589;DHT22;6865;52.552;13.434;2022-10-19T04:08:57;11.70;99.90
13589;DHT22;6865;52.552;13.434;2022-10-19T04:11:27;11.60;99.90
13589;DHT22;6865;52.552;13.434;2022-10-19T04:13:55;11.50;99.90
13589;DHT22;6865;52.552;13.434;2022-10-19T04:16:23;11.40;99.90
13589;DHT22;6865;52.552;13.434;2022-10-19T04:18:51;11.10;99.90
13589;DHT22;6865;52.552;13.434;2022-10-19T04:21:34;11.30;99.90
13589;DHT22;6865;52.552;13.434;2022-10-19T04:24:04;11.40;99.90
13589;DHT22;6865;52.552;13.434;2022-10-19T04:26:32;11.50;99.90
13589;DHT22;6865;52.552;13.434;2022-10-19T04:29:00;11.50;99.90
13589;DHT22;6865;52.552;13.434;2022-10-19T04:31:27;11.40;99.90
13589;DHT22;6865;52.552;13.434;2022-10-19T04:33:54;11.60;99.90
13589;DHT22;6865;52.552;13.434;2022-10-19T04:36:21;11.60;99.90
13589;DHT22;6865;52.552;13.434;2022-10-19T04:38:48;11.60;99.90
13589;DHT22;6865;52.552;13.434;2022-10-19T04:41:17;11.70;99.90
13589;DHT22;6865;52.552;13.434;2022-10-19T04:43:45;11.70;99.90
13589;DHT22;6865;52.552;13.434;2022-10-19T04:46:18;11.70;99.90
13589;DHT22;6865;52.552;13.434;2022-10-19T04:48:46;11.70;99.90
13589;DHT22;6865;52.552;13.434;2022-10-19T04:51:14;11.70;99.90
13589;DHT22;6865;52.552;13.434;2022-10-19T04:53:42;11.60;99.90
13589;DHT22;6865;52.552;13.434;2022-10-19T04:56:15;11.70;99.90
13589;DHT22;6865;52.552;13.434;2022-10-19T04:58:42;11.60;99.90
13589;DHT22;6865;52.552;13.434;2022-10-19T05:01:11;11.70;99.90
13589;DHT22;6865;52.552;13.434;2022-10-19T05:03:38;11.70;99.90
13589;DHT22;6865;52.552;13.434;2022-10-19T05:06:06;11.70;99.90
13589;DHT22;6865;52.552;13.434;2022-10-19T05:08:34;11.60;99.90
13589;DHT22;6865;52.552;13.434;2022-10-19T05:11:05;11.80;99.90
13589;DHT22;6865;52.552;13.434;2022-10-19T05:13:33;11.80;99.90
13589;DHT22;6865;52.552;13.434;2022-10-19T05:16:02;11.80;99.90
13589;DHT22;6865;52.552;13.434;2022-10-19T05:18:30;11.80;99.90
13589;DHT22;6865;52.552;13.434;2022-10-19T05:21:07;11.80;99.90
13589;DHT22;6865;52.552;13.434;2022-10-19T05:23:35;11.70;99.90
13589;DHT22;6865;52.552;13.434;2022-10-19T05:26:10;11.60;99.90
13589;DHT22;6865;52.552;13.434;2022-10-19T05:28:37;11.60;99.90
13589;DHT22;6865;52.552;13.434;2022-10-19T05:31:09;11.50;99.90
13589;DHT22;6865;52.552;13.434;2022-10-19T05:33:36;11.50;99.90
13589;DHT22;6865;52.552;13.434;2022-10-19T05:36:31;11.40;99.90
13589;DHT22;6865;52.552;13.434;2022-10-19T05:39:07;11.30;99.90
13589;DHT22;6865;52.552;13.434;2022-10-19T05:41:34;11.30;99.90
13589;DHT22;6865;52.552;13.434;2022-10-19T05:44:02;11.20;99.90
13589;DHT22;6865;52.552;13.434;2022-10-19T05:46:31;11.20;99.90
13589;DHT22;6865;52.552;13.434;2022-10-19T05:48:58;11.20;99.90
13589;DHT22;6865;52.552;13.434;2022-10-19T05:51:26;11.30;99.90
13589;DHT22;6865;52.552;13.434;2022-10-19T05:53:54;11.40;99.90
13589;DHT22;6865;52.552;13.434;2022-10-19T05:56:27;11.40;99.90
13589;DHT22;6865;52.552;13.434;2022-10-19T05:58:56;11.30;99.90
13589;DHT22;6865;52.552;13.434;2022-10-19T06:01:23;11.30;99.90
13589;DHT22;6865;52.552;13.434;2022-10-19T06:03:52;11.10;99.90
13589;DHT22;6865;52.552;13.434;2022-10-19T06:06:19;11.20;99.90
13589;DHT22;6865;52.552;13.434;2022-10-19T06:08:46;11.20;99.90
13589;DHT22;6865;52.552;13.434;2022-10-19T06:11:14;11.30;99.90
13589;DHT22;6865;52.552;13.434;2022-10-19T06:13:43;11.30;99.90
13589;DHT22;6865;52.552;13.434;2022-10-19T06:16:11;11.40;99.90
13589;DHT22;6865;52.552;13.434;2022-10-19T06:18:39;11.40;99.90
13589;DHT22;6865;52.552;13.434;2022-10-19T06:21:08;11.40;99.90
13589;DHT22;6865;52.552;13.434;2022-10-19T06:23:36;11.50;99.90
13589;DHT22;6865;52.552;13.434;2022-10-19T06:26:06;11.60;99.90
13589;DHT22;6865;52.552;13.434;2022-10-19T06:28:34;11.60;99.90
13589;DHT22;6865;52.552;13.434;2022-10-19T06:31:00;11.50;99.90
13589;DHT22;6865;52.552;13.434;2022-10-19T06:33:31;11.50;99.90
13589;DHT22;6865;52.552;13.434;2022-10-19T06:36:14;11.50;99.90
13589;DHT22;6865;52.552;13.434;2022-10-19T06:38:41;11.60;99.90
13589;DHT22;6865;52.552;13.434;2022-10-19T06:41:09;11.60;99.90
13589;DHT22;6865;52.552;13.434;2022-10-19T06:43:36;11.40;99.90
13589;DHT22;6865;52.552;13.434;2022-10-19T06:46:04;11.60;99.90
13589;DHT22;6865;52.552;13.434;2022-10-19T06:48:31;11.60;99.90
13589;DHT22;6865;52.552;13.434;2022-10-19T06:50:59;11.70;99.90
13589;DHT22;6865;52.552;13.434;2022-10-19T06:53:27;11.70;99.90
13589;DHT22;6865;52.552;13.434;2022-10-19T06:55:58;11.60;99.90
13589;DHT22;6865;52.552;13.434;2022-10-19T06:58:25;11.70;99.90
13589;DHT22;6865;52.552;13.434;2022-10-19T07:00:59;11.70;99.90
13589;DHT22;6865;52.552;13.434;2022-10-19T07:03:29;11.60;99.90
13589;DHT22;6865;52.552;13.434;2022-10-19T07:06:00;11.70;99.90
13589;DHT22;6865;52.552;13.434;2022-10-19T07:08:29;11.80;99.90
13589;DHT22;6865;52.552;13.434;2022-10-19T07:10:58;11.90;99.90
13589;DHT22;6865;52.552;13.434;2022-10-19T07:13:26;11.90;99.90
13589;DHT22;6865;52.552;13.434;2022-10-19T07:15:58;12.00;99.90
13589;DHT22;6865;52.552;13.434;2022-10-19T07:18:26;12.00;99.90
13589;DHT22;6865;52.552;13.434;2022-10-19T07:20:55;12.10;99.90
13589;DHT22;6865;52.552;13.434;2022-10-19T07:23:22;12.30;99.90
13589;DHT22;6865;52.552;13.434;2022-10-19T07:25:49;12.30;99.90
13589;DHT22;6865;52.552;13.434;2022-10-19T07:28:21;12.30;99.90
13589;DHT22;6865;52.552;13.434;2022-10-19T07:30:48;12.40;99.90
13589;DHT22;6865;52.552;13.434;2022-10-19T07:33:14;12.40;99.90
13589;DHT22;6865;52.552;13.434;2022-10-19T07:35:46;12.50;99.90
13589;DHT22;6865;52.552;13.434;2022-10-19T07:38:12;12.50;99.90
13589;DHT22;6865;52.552;13.434;2022-10-19T07:40:39;12.50;99.90
13589;DHT22;6865;52.552;13.434;2022-10-19T07:43:12;12.60;99.90
13589;DHT22;6865;52.552;13.434;2022-10-19T07:45:39;12.70;99.90
13589;DHT22;6865;52.552;13.434;2022-10-19T07:48:05;12.80;99.90
13589;DHT22;6865;52.552;13.434;2022-10-19T07:50:32;12.90;99.90
13589;DHT22;6865;52.552;13.434;2022-10-19T07:52:59;13.00;99.90
13589;DHT22;6865;52.552;13.434;2022-10-19T07:55:25;13.10;99.90
13589;DHT22;6865;52.552;13.434;2022-10-19T07:57:52;13.20;99.90
13589;DHT22;6865;52.552;13.434;2022-10-19T08:00:18;13.50;99.90
13589;DHT22;6865;52.552;13.434;2022-10-19T08:02:45;13.10;99.90
13589;DHT22;6865;52.552;13.434;2022-10-19T08:05:32;13.10;99.90
13589;DHT22;6865;52.552;13.434;2022-10-19T08:07:59;13.10;99.90
13589;DHT22;6865;52.552;13.434;2022-10-19T08:10:26;13.20;99.90
13589;DHT22;6865;52.552;13.434;2022-10-19T08:12:52;13.10;99.90
13589;DHT22;6865;52.552;13.434;2022-10-19T08:15:19;13.00;99.90
13589;DHT22;6865;52.552;13.434;2022-10-19T08:17:46;13.00;99.90
13589;DHT22;6865;52.552;13.434;2022-10-19T08:20:12;13.10;99.90
13589;DHT22;6865;52.552;13.434;2022-10-19T08:22:39;13.20;99.90
13589;DHT22;6865;52.552;13.434;2022-10-19T08:25:07;13.20;99.90
13589;DHT22;6865;52.552;13.434;2022-10-19T08:27:34;12.70;99.90
13589;DHT22;6865;52.552;13.434;2022-10-19T08:30:01;13.20;99.90
13589;DHT22;6865;52.552;13.434;2022-10-19T08:32:28;13.20;99.90
13589;DHT22;6865;52.552;13.434;2022-10-19T08:34:55;13.30;99.90
13589;DHT22;6865;52.552;13.434;2022-10-19T08:37:21;13.20;99.90
13589;DHT22;6865;52.552;13.434;2022-10-19T08:40:17;13.20;99.90
13589;DHT22;6865;52.552;13.434;2022-10-19T08:43:11;13.20;99.90
13589;DHT22;6865;52.552;13.434;2022-10-19T08:45:50;13.20;99.90
13589;DHT22;6865;52.552;13.434;2022-10-19T08:48:24;13.40;99.90
13589;DHT22;6865;52.552;13.434;2022-10-19T08:50:55;13.40;99.90
13589;DHT22;6865;52.552;13.434;2022-10-19T08:53:52;13.50;99.90
13589;DHT22;6865;52.552;13.434;2022-10-19T09:02:23;13.60;99.90
13589;DHT22;6865;52.552;13.434;2022-10-19T09:05:03;13.50;99.90
13589;DHT22;6865;52.552;13.434;2022-10-19T09:07:35;13.70;99.90
13589;DHT22;6865;52.552;13.434;2022-10-19T09:15:39;13.90;99.90
13589;DHT22;6865;52.552;13.434;2022-10-19T09:18:24;14.00;99.90
13589;DHT22;6865;52.552;13.434;2022-10-19T09:21:09;14.00;99.90
13589;DHT22;6865;52.552;13.434;2022-10-19T09:24:31;14.10;99.90
13589;DHT22;6865;52.552;13.434;2022-10-19T09:26:53;14.10;99.90
13589;DHT22;6865;52.552;13.434;2022-10-19T09:29:40;14.20;99.90
13589;DHT22;6865;52.552;13.434;2022-10-19T09:32:27;14.10;99.90
13589;DHT22;6865;52.552;13.434;2022-10-19T09:34:59;14.10;99.90
13589;DHT22;6865;52.552;13.434;2022-10-19T09:37:28;13.60;99.90
13589;DHT22;6865;52.552;13.434;2022-10-19T09:40:00;14.00;99.90
13589;DHT22;6865;52.552;13.434;2022-10-19T09:42:31;13.90;99.90
13589;DHT22;6865;52.552;13.434;2022-10-19T09:45:01;13.90;99.90
13589;DHT22;6865;52.552;13.434;2022-10-19T09:47:36;13.90;99.90
13589;DHT22;6865;52.552;13.434;2022-10-19T09:50:20;14.00;99.90
13589;DHT22;6865;52.552;13.434;2022-10-19T09:53:10;14.00;99.90
13589;DHT22;6865;52.552;13.434;2022-10-19T09:55:41;13.90;99.90
13589;DHT22;6865;52.552;13.434;2022-10-19T10:00:46;13.60;99.90
13589;DHT22;6865;52.552;13.434;2022-10-19T10:03:25;13.60;99.90
13589;DHT22;6865;52.552;13.434;2022-10-19T10:05:54;13.50;99.90
13589;DHT22;6865;52.552;13.434;2022-10-19T10:08:30;13.50;99.90
13589;DHT22;6865;52.552;13.434;2022-10-19T10:11:05;13.60;99.90
13589;DHT22;6865;52.552;13.434;2022-10-19T10:13:39;13.60;99.90
13589;DHT22;6865;52.552;13.434;2022-10-19T10:16:10;13.60;99.90
13589;DHT22;6865;52.552;13.434;2022-10-19T10:21:29;13.50;99.90
13589;DHT22;6865;52.552;13.434;2022-10-19T10:24:00;13.50;99.90
13589;DHT22;6865;52.552;13.434;2022-10-19T10:26:27;13.50;99.90
13589;DHT22;6865;52.552;13.434;2022-10-19T10:28:54;11.60;99.90
13589;DHT22;6865;52.552;13.434;2022-10-19T10:31:28;13.60;99.90
13589;DHT22;6865;52.552;13.434;2022-10-19T10:33:59;13.80;99.90
13589;DHT22;6865;52.552;13.434;2022-10-19T10:36:50;13.90;99.90
13589;DHT22;6865;52.552;13.434;2022-10-19T10:39:18;13.90;99.90
13589;DHT22;6865;52.552;13.434;2022-10-19T10:41:46;13.90;99.90
13589;DHT22;6865;52.552;13.434;2022-10-19T10:44:20;14.00;99.90
13589;DHT22;6865;52.552;13.434;2022-10-19T10:46:51;14.00;99.90
13589;DHT22;6865;52.552;13.434;2022-10-19T10:49:24;13.90;99.90
13589;DHT22;6865;52.552;13.434;2022-10-19T10:51:59;14.10;99.90
13589;DHT22;6865;52.552;13.434;2022-10-19T10:54:28;14.30;99.90
13589;DHT22;6865;52.552;13.434;2022-10-19T10:57:03;14.40;99.90
13589;DHT22;6865;52.552;13.434;2022-10-19T10:59:50;14.60;99.90
13589;DHT22;6865;52.552;13.434;2022-10-19T11:02:54;14.80;99.90
13589;DHT22;6865;52.552;13.434;2022-10-19T11:05:31;15.10;99.90
13589;DHT22;6865;52.552;13.434;2022-10-19T11:08:23;15.30;99.90
13589;DHT22;6865;52.552;13.434;2022-10-19T11:10:56;15.30;99.90
13589;DHT22;6865;52.552;13.434;2022-10-19T11:13:29;15.20;99.90
13589;DHT22;6865;52.552;13.434;2022-10-19T11:16:03;16.00;99.90
13589;DHT22;6865;52.552;13.434;2022-10-19T11:18:40;15.10;99.90
13589;DHT22;6865;52.552;13.434;2022-10-19T11:21:21;15.10;99.70
13589;DHT22;6865;52.552;13.434;2022-10-19T11:24:05;15.10;99.90
13589;DHT22;6865;52.552;13.434;2022-10-19T11:29:37;15.00;99.90
13589;DHT22;6865;52.552;13.434;2022-10-19T11:32:24;15.00;99.90
13589;DHT22;6865;52.552;13.434;2022-10-19T11:35:11;14.90;99.90
13589;DHT22;6865;52.552;13.434;2022-10-19T11:37:51;15.00;99.90
13589;DHT22;6865;52.552;13.434;2022-10-19T11:49:42;14.70;99.90
13589;DHT22;6865;52.552;13.434;2022-10-19T11:52:37;14.60;99.90
13589;DHT22;6865;52.552;13.434;2022-10-19T11:57:49;14.70;99.90
13589;DHT22;6865;52.552;13.434;2022-10-19T12:00:18;14.90;99.90
13589;DHT22;6865;52.552;13.434;2022-10-19T12:09:02;15.30;99.90
13589;DHT22;6865;52.552;13.434;2022-10-19T12:11:57;15.20;99.90
13589;DHT22;6865;52.552;13.434;2022-10-19T12:14:29;15.20;99.90
13589;DHT22;6865;52.552;13.434;2022-10-19T12:17:01;15.30;99.90
13589;DHT22;6865;52.552;13.434;2022-10-19T12:19:38;15.30;99.90
13589;DHT22;6865;52.552;13.434;2022-10-19T12:22:12;14.90;99.90
13589;DHT22;6865;52.552;13.434;2022-10-19T12:24:40;15.00;99.90
13589;DHT22;6865;52.552;13.434;2022-10-19T12:27:12;15.10;99.90
13589;DHT22;6865;52.552;13.434;2022-10-19T12:29:42;15.10;99.90
13589;DHT22;6865;52.552;13.434;2022-10-19T12:32:14;15.00;99.90
13589;DHT22;6865;52.552;13.434;2022-10-19T12:34:56;15.00;99.90
13589;DHT22;6865;52.552;13.434;2022-10-19T12:37:55;15.00;99.90
13589;DHT22;6865;52.552;13.434;2022-10-19T12:40:22;15.10;99.90
13589;DHT22;6865;52.552;13.434;2022-10-19T12:42:58;15.10;99.90
13589;DHT22;6865;52.552;13.434;2022-10-19T12:45:31;15.20;99.90
13589;DHT22;6865;52.552;13.434;2022-10-19T12:53:41;15.20;99.90
13589;DHT22;6865;52.552;13.434;2022-10-19T12:56:23;15.30;99.90
13589;DHT22;6865;52.552;13.434;2022-10-19T12:58:58;15.20;99.90
13589;DHT22;6865;52.552;13.434;2022-10-19T13:04:14;15.10;99.90
13589;DHT22;6865;52.552;13.434;2022-10-19T13:07:02;15.00;99.90
13589;DHT22;6865;52.552;13.434;2022-10-19T13:09:40;14.90;99.90
13589;DHT22;6865;52.552;13.434;2022-10-19T13:12:26;14.80;99.90
13589;DHT22;6865;52.552;13.434;2022-10-19T13:14:57;14.80;99.90
13589;DHT22;6865;52.552;13.434;2022-10-19T13:22:42;14.70;99.90
13589;DHT22;6865;52.552;13.434;2022-10-19T13:25:20;14.80;99.90
13589;DHT22;6865;52.552;13.434;2022-10-19T13:27:50;14.90;99.90
13589;DHT22;6865;52.552;13.434;2022-10-19T13:38:43;15.00;99.90
13589;DHT22;6865;52.552;13.434;2022-10-19T13:41:20;15.00;99.90
13589;DHT22;6865;52.552;13.434;2022-10-19T13:46:49;14.90;99.90
13589;DHT22;6865;52.552;13.434;2022-10-19T13:52:29;14.60;99.90
13589;DHT22;6865;52.552;13.434;2022-10-19T13:58:47;14.50;99.90
13589;DHT22;6865;52.552;13.434;2022-10-19T14:01:42;14.50;99.90
13589;DHT22;6865;52.552;13.434;2022-10-19T14:04:35;14.50;99.90
13589;DHT22;6865;52.552;13.434;2022-10-19T14:07:11;14.50;99.90
13589;DHT22;6865;52.552;13.434;2022-10-19T14:09:55;14.60;99.90
13589;DHT22;6865;52.552;13.434;2022-10-19T14:12:28;14.60;99.90
13589;DHT22;6865;52.552;13.434;2022-10-19T14:14:55;14.70;99.90
13589;DHT22;6865;52.552;13.434;2022-10-19T14:17:24;14.70;99.90
13589;DHT22;6865;52.552;13.434;2022-10-19T14:19:55;14.80;99.90
13589;DHT22;6865;52.552;13.434;2022-10-19T14:22:31;14.80;99.90
13589;DHT22;6865;52.552;13.434;2022-10-19T14:25:17;14.90;99.90
13589;DHT22;6865;52.552;13.434;2022-10-19T14:27:45;14.90;99.90
13589;DHT22;6865;52.552;13.434;2022-10-19T14:30:23;15.00;99.90
13589;DHT22;6865;52.552;13.434;2022-10-19T14:32:50;15.10;99.90
13589;DHT22;6865;52.552;13.434;2022-10-19T14:35:26;15.30;99.60
13589;DHT22;6865;52.552;13.434;2022-10-19T14:37:54;15.50;99.30
13589;DHT22;6865;52.552;13.434;2022-10-19T14:40:28;15.60;99.90
13589;DHT22;6865;52.552;13.434;2022-10-19T14:42:57;15.50;99.90
13589;DHT22;6865;52.552;13.434;2022-10-19T14:45:30;15.30;99.90
13589;DHT22;6865;52.552;13.434;2022-10-19T14:50:31;14.90;99.90
13589;DHT22;6865;52.552;13.434;2022-10-19T14:53:25;14.80;99.90
13589;DHT22;6865;52.552;13.434;2022-10-19T14:56:13;14.60;99.90
13589;DHT22;6865;52.552;13.434;2022-10-19T14:58:52;14.50;99.90
13589;DHT22;6865;52.552;13.434;2022-10-19T15:01:20;14.30;99.90
13589;DHT22;6865;52.552;13.434;2022-10-19T15:03:47;14.20;99.90
13589;DHT22;6865;52.552;13.434;2022-10-19T15:06:22;14.10;99.90
13589;DHT22;6865;52.552;13.434;2022-10-19T15:08:55;14.00;99.90
13589;DHT22;6865;52.552;13.434;2022-10-19T15:11:26;13.60;99.90
13589;DHT22;6865;52.552;13.434;2022-10-19T15:14:05;13.80;99.90
13589;DHT22;6865;52.552;13.434;2022-10-19T15:16:46;13.70;99.90
13589;DHT22;6865;52.552;13.434;2022-10-19T15:19:30;13.70;99.90
13589;DHT22;6865;52.552;13.434;2022-10-19T15:24:54;13.40;99.90
13589;DHT22;6865;52.552;13.434;2022-10-19T15:27:28;12.90;99.90
13589;DHT22;6865;52.552;13.434;2022-10-19T15:30:01;13.30;99.90
13589;DHT22;6865;52.552;13.434;2022-10-19T15:32:34;13.30;99.90
13589;DHT22;6865;52.552;13.434;2022-10-19T15:35:15;13.20;99.90
13589;DHT22;6865;52.552;13.434;2022-10-19T15:37:44;13.20;99.90
13589;DHT22;6865;52.552;13.434;2022-10-19T15:40:21;13.10;99.90
13589;DHT22;6865;52.552;13.434;2022-10-19T15:42:49;13.00;99.90
13589;DHT22;6865;52.552;13.434;2022-10-19T15:45:36;13.00;99.90
13589;DHT22;6865;52.552;13.434;2022-10-19T15:50:47;12.90;99.90
13589;DHT22;6865;52.552;13.434;2022-10-19T15:53:14;12.90;99.90
13589;DHT22;6865;52.552;13.434;2022-10-19T15:55:41;12.70;99.90
13589;DHT22;6865;52.552;13.434;2022-10-19T15:58:09;12.60;99.90
13589;DHT22;6865;52.552;13.434;2022-10-19T16:00:36;12.50;99.90
13589;DHT22;6865;52.552;13.434;2022-10-19T16:03:03;12.40;99.90
13589;DHT22;6865;52.552;13.434;2022-10-19T16:05:30;12.30;99.90
13589;DHT22;6865;52.552;13.434;2022-10-19T16:07:57;12.30;99.90
13589;DHT22;6865;52.552;13.434;2022-10-19T16:10:25;12.20;99.90
13589;DHT22;6865;52.552;13.434;2022-10-19T16:12:53;12.10;99.90
13589;DHT22;6865;52.552;13.434;2022-10-19T16:15:21;12.00;99.90
13589;DHT22;6865;52.552;13.434;2022-10-19T16:17:57;11.90;99.90
13589;DHT22;6865;52.552;13.434;2022-10-19T16:20:25;11.80;99.90
13589;DHT22;6865;52.552;13.434;2022-10-19T16:22:52;11.80;99.90
13589;DHT22;6865;52.552;13.434;2022-10-19T16:25:19;11.90;99.90
13589;DHT22;6865;52.552;13.434;2022-10-19T16:27:46;11.70;99.90
13589;DHT22;6865;52.552;13.434;2022-10-19T16:30:12;11.70;99.90
13589;DHT22;6865;52.552;13.434;2022-10-19T16:32:39;11.60;99.90
13589;DHT22;6865;52.552;13.434;2022-10-19T16:35:10;11.50;99.90
13589;DHT22;6865;52.552;13.434;2022-10-19T16:37:37;11.50;99.90
13589;DHT22;6865;52.552;13.434;2022-10-19T16:40:04;11.40;99.90
13589;DHT22;6865;52.552;13.434;2022-10-19T16:42:31;11.40;99.90
13589;DHT22;6865;52.552;13.434;2022-10-19T16:44:59;11.30;99.90
13589;DHT22;6865;52.552;13.434;2022-10-19T16:47:26;11.30;99.90
13589;DHT22;6865;52.552;13.434;2022-10-19T16:50:00;11.20;99.90
13589;DHT22;6865;52.552;13.434;2022-10-19T16:52:27;11.20;99.90
13589;DHT22;6865;52.552;13.434;2022-10-19T16:54:54;11.20;99.90
13589;DHT22;6865;52.552;13.434;2022-10-19T16:57:20;11.10;99.90
13589;DHT22;6865;52.552;13.434;2022-10-19T16:59:51;11.10;99.90
13589;DHT22;6865;52.552;13.434;2022-10-19T17:02:23;11.00;99.90
13589;DHT22;6865;52.552;13.434;2022-10-19T17:04:50;10.70;99.90
13589;DHT22;6865;52.552;13.434;2022-10-19T17:07:17;10.90;99.90
13589;DHT22;6865;52.552;13.434;2022-10-19T17:09:43;10.90;99.90
13589;DHT22;6865;52.552;13.434;2022-10-19T17:12:10;10.90;99.90
13589;DHT22;6865;52.552;13.434;2022-10-19T17:14:39;10.90;99.90
13589;DHT22;6865;52.552;13.434;2022-10-19T17:17:07;10.90;99.90
13589;DHT22;6865;52.552;13.434;2022-10-19T17:19:35;10.80;99.90
13589;DHT22;6865;52.552;13.434;2022-10-19T17:22:02;10.80;99.90
13589;DHT22;6865;52.552;13.434;2022-10-19T17:24:30;10.70;99.90
13589;DHT22;6865;52.552;13.434;2022-10-19T17:27:00;10.60;99.90
13589;DHT22;6865;52.552;13.434;2022-10-19T17:29:28;10.40;99.90
13589;DHT22;6865;52.552;13.434;2022-10-19T17:31:55;10.30;99.90
13589;DHT22;6865;52.552;13.434;2022-10-19T17:34:21;10.40;99.90
13589;DHT22;6865;52.552;13.434;2022-10-19T17:36:48;10.50;99.90